Time;durP1;ratioP1;P1;durP2;ratioP2;P2;SDS_P1;SDS_P2;PMS_P1;PMS_P2;Temp;Humidity;BMP_temperature;BMP_pressure;BME280_temperature;BME280_humidity;BME280_pressure;Samples;Min_cycle;Max_cycle;Signal;HPM_P1;HPM_P2
2022/06/24 00:01:55;;;;;;;1.40;1.33;;;20.30;98.00;;;;;;5033409;28;20459;-71
2022/06/24 00:04:25;;;;;;;3.00;1.20;;;20.40;98.00;;;;;;5033425;28;20503;-71
2022/06/24 00:06:53;;;;;;;1.50;1.27;;;20.50;98.00;;;;;;5033233;28;20569;-71
2022/06/24 00:09:23;;;;;;;1.40;1.33;;;20.40;98.00;;;;;;5033218;28;20469;-71
2022/06/24 00:12:03;;;;;;;1.20;1.10;;;20.40;98.00;;;;;;5032001;28;20462;-71
2022/06/24 00:14:30;;;;;;;2.33;1.40;;;20.30;98.00;;;;;;5033438;28;20824;-71
2022/06/24 00:16:59;;;;;;;1.60;1.30;;;20.20;98.00;;;;;;5033198;28;20486;-71
2022/06/24 00:19:29;;;;;;;1.90;1.40;;;20.20;98.00;;;;;;5033198;28;20516;-71
2022/06/24 00:22:01;;;;;;;1.50;1.40;;;20.20;98.00;;;;;;5033079;28;20463;-71
2022/06/24 00:24:30;;;;;;;1.40;1.20;;;20.10;98.00;;;;;;5031828;28;20467;-71
2022/06/24 00:26:58;;;;;;;1.40;1.20;;;20.00;98.00;;;;;;5032605;28;20446;-71
2022/06/24 00:29:27;;;;;;;1.20;1.00;;;20.10;98.00;;;;;;5031639;28;20473;-71
2022/06/24 00:32:05;;;;;;;1.70;1.20;;;20.00;98.00;;;;;;5032422;28;20459;-71
2022/06/24 00:34:33;;;;;;;1.30;1.10;;;20.00;98.00;;;;;;5032712;28;20470;-71
2022/06/24 00:37:15;;;;;;;1.40;1.20;;;20.00;98.00;;;;;;5032343;28;20493;-71
2022/06/24 00:39:43;;;;;;;1.50;1.20;;;20.10;98.00;;;;;;5032496;28;20470;-71
2022/06/24 00:42:10;;;;;;;1.60;1.33;;;20.20;98.00;;;;;;5032387;28;20462;-72
2022/06/24 00:44:45;;;;;;;1.20;1.10;;;20.40;98.00;;;;;;5032553;28;20473;-71
2022/06/24 00:47:16;;;;;;;1.53;1.43;;;20.50;98.00;;;;;;5032330;28;21269;-71
2022/06/24 00:49:49;;;;;;;1.40;1.20;;;20.50;98.00;;;;;;5031741;28;20454;-71
2022/06/24 00:52:16;;;;;;;1.40;1.27;;;20.40;98.00;;;;;;5032427;28;20866;-71
2022/06/24 00:54:47;;;;;;;1.47;1.20;;;20.30;98.00;;;;;;5032563;28;20486;-71
2022/06/24 00:57:14;;;;;;;1.90;1.30;;;20.30;98.00;;;;;;5030888;28;20462;-71
2022/06/24 00:59:42;;;;;;;2.83;2.30;;;20.40;98.00;;;;;;5032496;28;20469;-71
2022/06/24 01:02:11;;;;;;;1.77;1.40;;;20.60;98.00;;;;;;5032471;28;20459;-71
2022/06/24 01:04:38;;;;;;;1.50;1.30;;;20.50;98.00;;;;;;5032305;28;20454;-71
2022/06/24 01:07:05;;;;;;;1.40;1.10;;;20.40;98.00;;;;;;5032190;28;20948;-71
2022/06/24 01:09:32;;;;;;;1.70;1.23;;;20.40;98.00;;;;;;5032152;28;20964;-71
2022/06/24 01:12:01;;;;;;;1.30;1.20;;;20.30;98.00;;;;;;5032326;28;20967;-71
2022/06/24 01:14:28;;;;;;;1.77;1.40;;;20.30;98.00;;;;;;5032299;28;20461;-71
2022/06/24 01:16:55;;;;;;;1.50;1.20;;;20.30;98.00;;;;;;5032103;28;20945;-71
2022/06/24 01:19:22;;;;;;;1.83;1.30;;;20.30;98.00;;;;;;5032182;28;20450;-71
2022/06/24 01:21:51;;;;;;;1.50;1.37;;;20.20;98.00;;;;;;5032104;28;20470;-71
2022/06/24 01:24:20;;;;;;;2.13;1.20;;;20.20;98.00;;;;;;5032175;28;20549;-71
2022/06/24 01:26:49;;;;;;;1.30;1.20;;;20.00;98.00;;;;;;5031960;28;20838;-71
2022/06/24 01:29:17;;;;;;;1.30;1.17;;;20.00;98.00;;;;;;5031812;28;20988;-71
2022/06/24 01:31:48;;;;;;;2.43;1.27;;;20.00;98.00;;;;;;5031227;28;20980;-71
2022/06/24 01:34:17;;;;;;;1.60;1.37;;;19.90;98.00;;;;;;5031063;28;20490;-71
2022/06/24 01:36:44;;;;;;;2.00;1.53;;;19.80;98.00;;;;;;5030956;28;20472;-71
2022/06/24 01:39:13;;;;;;;1.57;1.33;;;19.80;98.00;;;;;;5031124;28;20454;-71
2022/06/24 01:41:40;;;;;;;1.90;1.30;;;19.80;98.00;;;;;;5031133;28;20451;-71
2022/06/24 01:44:07;;;;;;;1.67;1.33;;;19.90;98.00;;;;;;5031041;28;20497;-71
2022/06/24 01:46:35;;;;;;;1.70;1.30;;;19.90;98.00;;;;;;5031078;28;20458;-71
2022/06/24 01:49:02;;;;;;;1.47;1.13;;;19.80;98.00;;;;;;5030923;28;20486;-71
2022/06/24 01:51:29;;;;;;;1.30;1.20;;;19.80;98.00;;;;;;5031084;28;20446;-71
2022/06/24 01:53:56;;;;;;;2.17;1.47;;;20.10;98.00;;;;;;5030920;28;20458;-71
2022/06/24 01:56:25;;;;;;;1.30;1.30;;;20.00;98.00;;;;;;5031269;28;20556;-71
2022/06/24 01:58:52;;;;;;;1.60;1.50;;;19.90;98.00;;;;;;5031578;28;20450;-71
2022/06/24 02:01:19;;;;;;;1.57;1.27;;;19.90;98.00;;;;;;5034351;28;20458;-71
2022/06/24 02:03:46;;;;;;;1.60;1.20;;;19.80;98.00;;;;;;5035640;28;20517;-71
2022/06/24 02:06:15;;;;;;;4.70;1.40;;;19.70;98.00;;;;;;5035726;28;20466;-71
2022/06/24 02:08:43;;;;;;;1.40;1.20;;;19.80;98.00;;;;;;5035457;28;20486;-71
2022/06/24 02:13:59;;;;;;;1.20;1.13;;;19.90;98.00;;;;;;5035650;28;20505;-71
2022/06/24 02:16:27;;;;;;;1.70;1.30;;;19.90;98.00;;;;;;5035819;28;20458;-71
2022/06/24 02:18:56;;;;;;;1.30;1.20;;;20.00;98.00;;;;;;5035669;28;20455;-71
2022/06/24 02:21:25;;;;;;;2.03;1.43;;;20.00;98.00;;;;;;5035790;28;20484;-71
2022/06/24 02:23:53;;;;;;;1.60;1.30;;;20.00;98.00;;;;;;5035120;28;20461;-71
2022/06/24 02:26:25;;;;;;;4.33;1.50;;;20.00;98.00;;;;;;5035170;28;20454;-71
2022/06/24 02:28:53;;;;;;;1.30;1.07;;;19.80;98.00;;;;;;5034945;28;20501;-71
2022/06/24 02:31:23;;;;;;;1.40;1.20;;;19.70;98.00;;;;;;5034879;28;20476;-71
2022/06/24 02:33:50;;;;;;;1.30;1.20;;;19.70;98.00;;;;;;5034992;28;20454;-71
2022/06/24 02:36:19;;;;;;;1.40;1.20;;;19.70;98.00;;;;;;5034750;28;20837;-71
2022/06/24 02:38:46;;;;;;;1.37;1.20;;;19.60;98.00;;;;;;5034731;28;20494;-71
2022/06/24 02:41:14;;;;;;;1.70;1.60;;;19.50;98.00;;;;;;5033609;28;20458;-71
2022/06/24 02:43:41;;;;;;;1.30;1.30;;;19.50;98.00;;;;;;5034819;28;20459;-71
2022/06/24 02:46:09;;;;;;;1.47;1.30;;;19.30;98.00;;;;;;5034799;28;20845;-71
2022/06/24 02:48:42;;;;;;;1.20;1.10;;;19.30;98.00;;;;;;5034575;28;20645;-71
2022/06/24 02:51:12;;;;;;;1.50;1.40;;;19.20;98.00;;;;;;5034739;28;20483;-71
2022/06/24 02:53:39;;;;;;;2.03;1.40;;;19.10;98.00;;;;;;5034512;28;20457;-71
2022/06/24 02:56:08;;;;;;;1.80;1.40;;;19.10;98.00;;;;;;5034612;28;20550;-71
2022/06/24 02:58:36;;;;;;;1.30;1.20;;;19.10;98.00;;;;;;5034464;28;20981;-71
2022/06/24 03:01:04;;;;;;;1.87;1.40;;;19.00;98.00;;;;;;5034584;28;20827;-71
2022/06/24 03:03:32;;;;;;;1.63;1.50;;;19.00;98.00;;;;;;5034514;28;20787;-71
2022/06/24 03:06:01;;;;;;;1.50;1.20;;;19.00;98.00;;;;;;5034679;28;20450;-71
2022/06/24 03:08:29;;;;;;;2.07;1.50;;;19.10;98.00;;;;;;5034169;28;20497;-71
2022/06/24 03:10:57;;;;;;;1.30;1.20;;;19.20;98.00;;;;;;5034590;28;20455;-71
2022/06/24 03:13:24;;;;;;;1.50;1.20;;;19.30;98.00;;;;;;5033466;28;20839;-71
2022/06/24 03:15:52;;;;;;;3.00;1.50;;;19.30;98.00;;;;;;5034502;28;20546;-71
2022/06/24 03:18:19;;;;;;;2.73;1.30;;;19.20;98.00;;;;;;5034381;28;20455;-71
2022/06/24 03:20:47;;;;;;;2.07;1.37;;;19.10;98.00;;;;;;5034552;28;20455;-71
2022/06/24 03:23:17;;;;;;;1.53;1.37;;;19.10;98.00;;;;;;5034419;28;20459;-71
2022/06/24 03:25:45;;;;;;;2.30;1.30;;;19.00;98.00;;;;;;5034042;28;20455;-71
2022/06/24 03:28:12;;;;;;;1.87;1.30;;;19.10;98.00;;;;;;5033972;28;20483;-71
2022/06/24 03:30:39;;;;;;;1.93;1.57;;;19.20;98.00;;;;;;5034184;28;20451;-71
2022/06/24 03:33:09;;;;;;;1.37;1.20;;;19.00;98.00;;;;;;5033691;28;20485;-71
2022/06/24 03:35:36;;;;;;;1.40;1.30;;;18.90;98.00;;;;;;5033887;28;20477;-71
2022/06/24 03:38:04;;;;;;;1.63;1.40;;;18.80;98.00;;;;;;5033759;28;20455;-71
2022/06/24 03:40:32;;;;;;;1.50;1.20;;;18.70;98.00;;;;;;5033873;28;20957;-71
2022/06/24 03:43:00;;;;;;;2.17;1.40;;;18.70;98.00;;;;;;5033746;28;20481;-71
2022/06/24 03:45:27;;;;;;;1.40;1.20;;;18.80;98.00;;;;;;5033682;28;20481;-71
2022/06/24 03:47:54;;;;;;;1.40;1.40;;;18.90;98.00;;;;;;5033384;28;20462;-71
2022/06/24 03:50:22;;;;;;;1.40;1.40;;;19.20;98.00;;;;;;5033723;28;20944;-71
2022/06/24 03:52:49;;;;;;;1.40;1.23;;;19.20;98.00;;;;;;5033437;28;20465;-71
2022/06/24 03:55:16;;;;;;;2.03;1.30;;;19.10;98.00;;;;;;5033520;28;20469;-71
2022/06/24 03:57:45;;;;;;;1.80;1.40;;;19.00;98.00;;;;;;5033520;28;20838;-71
2022/06/24 04:00:13;;;;;;;1.83;1.80;;;19.00;98.00;;;;;;5033308;28;20465;-71
2022/06/24 04:02:41;;;;;;;2.07;1.50;;;19.00;98.00;;;;;;5033333;28;20509;-71
2022/06/24 04:05:10;;;;;;;1.47;1.23;;;19.10;98.00;;;;;;5033368;28;20823;-71
2022/06/24 04:07:38;;;;;;;1.73;1.60;;;19.00;98.00;;;;;;5033292;28;20463;-71
2022/06/24 04:10:05;;;;;;;2.00;1.60;;;18.80;98.00;;;;;;5033141;28;20509;-71
2022/06/24 04:12:33;;;;;;;1.60;1.20;;;18.80;98.00;;;;;;5033158;28;20459;-71
2022/06/24 04:15:17;;;;;;;1.40;1.30;;;18.80;98.00;;;;;;5033256;28;20537;-71
2022/06/24 04:17:45;;;;;;;1.60;1.30;;;18.80;98.00;;;;;;5033169;28;20451;-71
2022/06/24 04:20:13;;;;;;;1.60;1.40;;;18.70;98.00;;;;;;5033449;28;20466;-71
2022/06/24 04:22:40;;;;;;;1.77;1.57;;;18.60;98.00;;;;;;5033118;28;20455;-71
2022/06/24 04:25:08;;;;;;;1.53;1.20;;;18.70;98.00;;;;;;5033097;28;20549;-71
2022/06/24 04:27:36;;;;;;;1.37;1.13;;;18.80;98.00;;;;;;5032685;28;20455;-71
2022/06/24 04:30:08;;;;;;;2.17;1.40;;;18.80;98.00;;;;;;5032979;28;20486;-71
2022/06/24 04:32:35;;;;;;;1.40;1.30;;;18.70;98.00;;;;;;5032695;28;20458;-71
2022/06/24 04:35:02;;;;;;;1.83;1.40;;;18.80;98.00;;;;;;5032632;28;20994;-71
2022/06/24 04:37:29;;;;;;;1.40;1.23;;;18.90;98.00;;;;;;5032608;28;20458;-71
2022/06/24 04:39:58;;;;;;;1.40;1.20;;;18.80;98.00;;;;;;5032534;28;20462;-71
2022/06/24 04:42:25;;;;;;;1.90;1.50;;;18.70;98.00;;;;;;5032887;28;21031;-71
2022/06/24 04:44:53;;;;;;;1.60;1.50;;;18.80;98.00;;;;;;5032688;28;20466;-71
2022/06/24 04:47:22;;;;;;;1.63;1.30;;;18.80;98.00;;;;;;5032466;28;20498;-71
2022/06/24 04:49:50;;;;;;;2.50;1.43;;;18.80;98.00;;;;;;5032557;28;21031;-71
2022/06/24 04:52:17;;;;;;;1.30;1.23;;;18.80;98.00;;;;;;5032288;28;20459;-71
2022/06/24 04:54:46;;;;;;;1.67;1.47;;;18.80;98.00;;;;;;5032400;28;20454;-71
2022/06/24 04:57:13;;;;;;;1.30;1.10;;;18.80;98.00;;;;;;5032480;28;20463;-71
2022/06/24 04:59:41;;;;;;;1.80;1.37;;;18.90;98.00;;;;;;5032357;28;20455;-71
2022/06/24 05:02:08;;;;;;;1.50;1.30;;;18.80;98.00;;;;;;5031113;28;20455;-71
2022/06/24 05:04:38;;;;;;;1.87;1.40;;;18.80;98.00;;;;;;5032420;28;20454;-71
2022/06/24 05:07:06;;;;;;;2.43;1.70;;;18.80;98.00;;;;;;5030966;28;20450;-71
2022/06/24 05:09:35;;;;;;;1.67;1.37;;;18.70;98.00;;;;;;5032260;28;20496;-71
2022/06/24 05:12:03;;;;;;;3.10;1.73;;;18.60;98.00;;;;;;5032392;28;20459;-71
2022/06/24 05:14:31;;;;;;;1.80;1.40;;;18.70;98.00;;;;;;5032322;28;20451;-71
2022/06/24 05:16:58;;;;;;;5.00;1.40;;;18.80;98.00;;;;;;5032109;28;20454;-71
2022/06/24 05:19:25;;;;;;;1.63;1.60;;;18.90;98.00;;;;;;5032393;28;20455;-71
2022/06/24 05:21:54;;;;;;;1.90;1.40;;;19.00;98.00;;;;;;5032218;28;20468;-71
2022/06/24 05:24:22;;;;;;;2.50;1.63;;;19.30;98.00;;;;;;5032117;28;20466;-71
2022/06/24 05:26:49;;;;;;;4.00;1.90;;;19.40;98.00;;;;;;5031958;28;20466;-71
2022/06/24 05:29:16;;;;;;;6.83;1.90;;;19.60;98.00;;;;;;5031778;28;20475;-71
2022/06/24 05:31:45;;;;;;;2.70;1.77;;;19.70;98.00;;;;;;5031818;28;20450;-71
2022/06/24 05:34:12;;;;;;;2.10;1.63;;;19.80;98.00;;;;;;5031773;28;20545;-71
2022/06/24 05:36:39;;;;;;;2.50;1.50;;;20.00;98.00;;;;;;5031296;28;20493;-71
2022/06/24 05:39:08;;;;;;;1.67;1.50;;;20.10;98.00;;;;;;5031610;28;20469;-71
2022/06/24 05:41:38;;;;;;;1.97;1.63;;;20.10;98.00;;;;;;5031862;28;20537;-71
2022/06/24 05:44:06;;;;;;;2.33;1.83;;;20.10;98.00;;;;;;5031749;28;20450;-71
2022/06/24 05:46:33;;;;;;;1.50;1.23;;;20.20;98.00;;;;;;5031765;28;20466;-71
2022/06/24 05:49:01;;;;;;;2.50;1.93;;;20.30;98.00;;;;;;5031718;28;20513;-71
2022/06/24 05:51:29;;;;;;;2.27;1.73;;;20.50;98.00;;;;;;5031942;28;20454;-71
2022/06/24 05:56:42;;;;;;;3.10;1.80;;;20.50;98.00;;;;;;5031934;28;20491;-71
2022/06/24 05:59:09;;;;;;;2.30;1.80;;;20.60;98.00;;;;;;5031666;28;20513;-71
2022/06/24 06:01:36;;;;;;;2.37;1.60;;;20.70;98.00;;;;;;5031898;28;20490;-70
2022/06/24 06:04:04;;;;;;;4.83;2.10;;;20.60;98.00;;;;;;5031649;28;20459;-70
2022/06/24 06:06:31;;;;;;;4.23;2.37;;;20.80;98.00;;;;;;5031754;28;20461;-70
2022/06/24 06:08:58;;;;;;;2.37;2.10;;;20.90;98.00;;;;;;5031535;28;20490;-70
2022/06/24 06:11:26;;;;;;;4.30;1.80;;;21.00;98.00;;;;;;5031618;28;20462;-70
2022/06/24 06:13:59;;;;;;;1.70;1.60;;;21.10;98.00;;;;;;5031602;28;20443;-70
2022/06/24 06:16:27;;;;;;;1.90;1.60;;;21.20;98.00;;;;;;5031769;28;20847;-70
2022/06/24 06:18:54;;;;;;;1.90;1.47;;;21.20;98.00;;;;;;5031619;28;20446;-70
2022/06/24 06:21:21;;;;;;;1.90;1.60;;;21.20;98.00;;;;;;5031767;28;20463;-69
2022/06/24 06:23:48;;;;;;;1.60;1.40;;;21.20;98.00;;;;;;5031487;28;20596;-71
2022/06/24 06:26:15;;;;;;;2.00;1.40;;;21.20;98.00;;;;;;5031593;28;20447;-71
2022/06/24 06:28:43;;;;;;;1.93;1.50;;;21.50;98.00;;;;;;5031136;28;20969;-71
2022/06/24 06:31:15;;;;;;;2.13;1.60;;;21.60;98.00;;;;;;5031482;28;20500;-70
2022/06/24 06:33:42;;;;;;;3.07;2.10;;;22.00;98.00;;;;;;5031340;28;20449;-70
2022/06/24 06:36:11;;;;;;;2.60;1.77;;;22.20;98.00;;;;;;5029919;28;20466;-70
2022/06/24 06:38:38;;;;;;;1.73;1.30;;;22.30;98.00;;;;;;5031106;28;20550;-70
2022/06/24 06:41:05;;;;;;;1.70;1.53;;;22.40;98.00;;;;;;5031250;28;20600;-70
2022/06/24 06:43:33;;;;;;;1.53;1.47;;;22.70;98.00;;;;;;5031360;28;20458;-71
2022/06/24 06:46:00;;;;;;;2.57;1.80;;;22.80;98.00;;;;;;5031193;28;20463;-71
2022/06/24 06:48:32;;;;;;;1.97;1.60;;;23.00;98.00;;;;;;5032522;28;20459;-70
2022/06/24 06:51:00;;;;;;;2.13;1.70;;;23.10;98.00;;;;;;5034706;28;20996;-70
2022/06/24 06:53:29;;;;;;;2.10;1.60;;;23.40;98.00;;;;;;5034598;28;20540;-69
2022/06/24 06:55:57;;;;;;;2.30;1.80;;;23.60;98.00;;;;;;5034750;28;20474;-70
2022/06/24 06:58:24;;;;;;;3.80;1.80;;;23.70;98.00;;;;;;5034687;28;20458;-70
2022/06/24 07:00:53;;;;;;;4.97;1.87;;;23.80;98.00;;;;;;5034647;28;20462;-70
2022/06/24 07:03:20;;;;;;;2.17;1.73;;;24.00;98.00;;;;;;5034628;28;20856;-71
2022/06/24 07:05:51;;;;;;;1.97;1.57;;;24.20;98.00;;;;;;5034665;28;20947;-71
2022/06/24 07:08:18;;;;;;;3.60;1.50;;;24.30;98.00;;;;;;5033306;28;20872;-70
2022/06/24 07:10:46;;;;;;;2.00;1.50;;;24.40;98.00;;;;;;5034551;28;20493;-69
2022/06/24 07:13:13;;;;;;;2.23;1.87;;;24.50;98.00;;;;;;5034310;28;20463;-70
2022/06/24 07:15:41;;;;;;;3.50;1.90;;;24.30;98.00;;;;;;5013161;28;20822;-72
2022/06/24 07:18:08;;;;;;;4.07;1.77;;;24.20;98.00;;;;;;5011685;28;20664;-70
2022/06/24 07:20:35;;;;;;;2.00;1.70;;;24.00;98.00;;;;;;5011747;28;20459;-70
2022/06/24 07:23:04;;;;;;;3.53;1.90;;;23.90;98.00;;;;;;5011629;28;20823;-70
2022/06/24 07:25:33;;;;;;;3.20;1.93;;;23.80;98.00;;;;;;5011719;28;20931;-70
2022/06/24 07:28:01;;;;;;;3.80;1.97;;;23.70;98.00;;;;;;5011365;28;20452;-70
2022/06/24 07:30:29;;;;;;;2.60;1.80;;;23.60;98.00;;;;;;5011467;28;20517;-71
2022/06/24 07:32:57;;;;;;;2.50;1.80;;;23.40;98.00;;;;;;5011218;28;20844;-71
2022/06/24 07:35:24;;;;;;;2.90;1.97;;;23.20;98.00;;;;;;5011266;28;20468;-70
2022/06/24 07:37:52;;;;;;;3.10;2.03;;;23.30;98.00;;;;;;5010000;28;20533;-70
2022/06/24 07:40:20;;;;;;;1.83;1.50;;;23.40;98.00;;;;;;5010000;28;20451;-70
2022/06/24 07:42:48;;;;;;;2.27;1.70;;;23.20;98.00;;;;;;5011156;28;20466;-71
2022/06/24 07:45:15;;;;;;;2.13;1.87;;;23.20;98.00;;;;;;5010895;28;20474;-70
2022/06/24 07:47:43;;;;;;;2.47;1.93;;;23.30;98.00;;;;;;5009696;28;20951;-71
2022/06/24 07:50:10;;;;;;;3.07;2.00;;;23.20;98.00;;;;;;5008546;28;20491;-70
2022/06/24 07:52:37;;;;;;;1.70;1.53;;;23.20;98.00;;;;;;5010859;28;20462;-71
2022/06/24 07:57:51;;;;;;;2.37;2.07;;;23.30;98.00;;;;;;5010301;28;20473;-70
2022/06/24 08:00:19;;;;;;;2.10;1.73;;;23.50;98.00;;;;;;5010855;28;20486;-68
2022/06/24 08:02:46;;;;;;;3.63;1.93;;;23.70;98.00;;;;;;5010869;28;20467;-68
2022/06/24 08:05:13;;;;;;;2.27;1.63;;;23.70;98.00;;;;;;5010692;28;20464;-68
2022/06/24 08:07:41;;;;;;;5.43;1.83;;;23.80;98.00;;;;;;5010244;28;20459;-68
2022/06/24 08:10:09;;;;;;;2.40;1.60;;;23.90;98.00;;;;;;5010445;28;20487;-67
2022/06/24 08:12:36;;;;;;;2.70;1.77;;;24.00;98.00;;;;;;5010500;28;20950;-67
2022/06/24 08:15:05;;;;;;;4.80;2.53;;;24.00;98.00;;;;;;5010847;28;20887;-67
2022/06/24 08:17:32;;;;;;;2.23;1.73;;;24.20;98.00;;;;;;5010623;28;20456;-65
2022/06/24 08:19:59;;;;;;;2.33;1.77;;;24.40;98.00;;;;;;5010856;28;20447;-67
2022/06/24 08:22:26;;;;;;;2.50;1.93;;;24.40;98.00;;;;;;5010486;28;20452;-67
2022/06/24 08:24:53;;;;;;;2.73;1.83;;;24.40;98.00;;;;;;5010185;28;20447;-67
2022/06/24 08:27:20;;;;;;;2.50;1.80;;;24.40;98.00;;;;;;5009893;28;20517;-67
2022/06/24 08:29:48;;;;;;;1.90;1.53;;;24.40;98.00;;;;;;5009956;28;20498;-67
2022/06/24 08:32:16;;;;;;;2.80;1.97;;;24.30;98.00;;;;;;4992285;28;20510;-66
2022/06/24 08:34:43;;;;;;;2.43;1.87;;;24.40;98.00;;;;;;5009695;28;20448;-67
2022/06/24 08:37:10;;;;;;;3.50;2.20;;;24.40;98.00;;;;;;5009527;28;20860;-67
2022/06/24 08:39:38;;;;;;;5.57;2.80;;;24.50;98.00;;;;;;5009423;28;20455;-68
2022/06/24 08:42:06;;;;;;;2.17;1.90;;;24.60;98.00;;;;;;5009553;28;20466;-73
2022/06/24 08:44:36;;;;;;;2.73;1.83;;;24.50;98.00;;;;;;5009401;28;20558;-73
2022/06/24 08:47:03;;;;;;;2.83;1.90;;;24.70;98.00;;;;;;5009254;28;20479;-74
2022/06/24 08:49:34;;;;;;;2.00;1.67;;;24.80;98.00;;;;;;5006839;28;20472;-75
2022/06/24 08:52:06;;;;;;;2.70;1.97;;;24.80;98.00;;;;;;5008877;28;20555;-74
2022/06/24 08:54:34;;;;;;;2.60;1.63;;;24.60;98.00;;;;;;5009380;28;20464;-74
2022/06/24 08:57:01;;;;;;;2.07;1.77;;;24.50;98.00;;;;;;5008953;28;20460;-74
2022/06/24 08:59:29;;;;;;;2.60;1.90;;;24.40;98.00;;;;;;5009295;28;20550;-75
2022/06/24 09:01:56;;;;;;;2.90;2.00;;;24.50;98.00;;;;;;5009105;28;20551;-73
2022/06/24 09:04:24;;;;;;;2.03;1.63;;;24.60;98.00;;;;;;5009345;28;20467;-74
2022/06/24 09:07:17;;;;;;;2.20;1.80;;;24.60;98.00;;;;;;5009095;28;20543;-76
2022/06/24 09:09:58;;;;;;;2.40;1.70;;;24.70;98.00;;;;;;5008381;28;20470;-73
2022/06/24 09:12:25;;;;;;;3.10;2.10;;;24.80;98.00;;;;;;5001134;28;20471;-76
2022/06/24 09:14:52;;;;;;;3.10;1.90;;;24.70;98.00;;;;;;5009111;28;20562;-71
2022/06/24 09:17:28;;;;;;;2.03;1.67;;;24.80;98.00;;;;;;5018195;28;20466;-76
2022/06/24 09:20:05;;;;;;;2.73;1.93;;;25.00;98.00;;;;;;5020387;28;20513;-76
2022/06/24 09:22:33;;;;;;;2.00;1.50;;;25.20;98.00;;;;;;5016945;28;20467;-76
2022/06/24 09:25:01;;;;;;;1.80;1.70;;;25.20;98.00;;;;;;5016084;28;20465;-73
2022/06/24 09:27:29;;;;;;;2.30;1.50;;;25.20;98.00;;;;;;5010183;28;20514;-73
2022/06/24 09:29:56;;;;;;;2.70;1.80;;;25.20;98.00;;;;;;5010539;28;20484;-74
2022/06/24 09:32:23;;;;;;;2.20;1.80;;;25.10;97.30;;;;;;5033969;22;20487;-73
2022/06/24 09:35:01;;;;;;;2.90;2.17;;;25.10;97.60;;;;;;5009681;28;20475;-68
2022/06/24 09:37:39;;;;;;;1.73;1.50;;;25.20;98.00;;;;;;5014870;28;20450;-72
2022/06/24 09:40:17;;;;;;;2.53;1.83;;;25.40;98.00;;;;;;5030848;28;20466;-75
2022/06/24 09:42:51;;;;;;;1.70;1.50;;;25.80;98.00;;;;;;5031086;28;20978;-74
2022/06/24 09:45:19;;;;;;;1.73;1.50;;;26.10;96.80;;;;;;5030955;28;20453;-74
2022/06/24 09:47:51;;;;;;;2.10;1.80;;;26.20;96.30;;;;;;5031104;28;20459;-76
2022/06/24 09:50:19;;;;;;;3.63;2.00;;;26.40;95.40;;;;;;5030914;28;21009;-76
2022/06/24 09:52:49;;;;;;;2.27;1.80;;;26.70;95.80;;;;;;5030830;28;20450;-76
2022/06/24 09:55:17;;;;;;;2.70;2.07;;;26.90;93.70;;;;;;5030710;28;20455;-76
2022/06/24 09:57:46;;;;;;;1.83;1.70;;;26.80;92.10;;;;;;5030671;28;20644;-74
2022/06/24 10:03:00;;;;;;;3.90;1.90;;;26.80;91.60;;;;;;5030612;28;20807;-75
2022/06/24 10:05:29;;;;;;;1.83;1.63;;;26.40;91.60;;;;;;5031042;28;20520;-76
2022/06/24 10:07:59;;;;;;;2.03;1.60;;;26.30;92.50;;;;;;5030622;28;20458;-76
2022/06/24 10:10:29;;;;;;;1.83;1.70;;;26.10;92.60;;;;;;5030678;28;20486;-75
2022/06/24 10:13:03;;;;;;;2.00;1.67;;;26.00;93.90;;;;;;5023056;28;20464;-75
2022/06/24 10:15:31;;;;;;;2.43;1.67;;;26.10;93.30;;;;;;5009353;28;20822;-76
2022/06/24 10:18:00;;;;;;;2.07;1.70;;;26.00;90.70;;;;;;5010789;28;20463;-77
2022/06/24 10:20:28;;;;;;;2.90;2.17;;;26.00;93.30;;;;;;5010943;28;20513;-75
2022/06/24 10:22:57;;;;;;;1.60;1.50;;;26.20;94.60;;;;;;5014322;28;20452;-76
2022/06/24 10:25:55;;;;;;;2.70;1.90;;;26.40;94.70;;;;;;5014609;28;20553;-75
2022/06/24 10:28:22;;;;;;;1.90;1.57;;;26.50;92.70;;;;;;5014783;28;20455;-75
2022/06/24 10:30:58;;;;;;;3.93;1.50;;;26.50;92.40;;;;;;5014771;28;20487;-76
2022/06/24 10:33:28;;;;;;;2.10;1.50;;;26.60;94.30;;;;;;5014992;28;20479;-77
2022/06/24 10:36:01;;;;;;;1.83;1.70;;;26.70;93.10;;;;;;5014783;28;20455;-76
2022/06/24 10:38:35;;;;;;;1.80;1.80;;;26.60;92.30;;;;;;5014335;28;20452;-77
2022/06/24 10:41:05;;;;;;;2.90;1.87;;;26.60;92.50;;;;;;5014489;28;20470;-76
2022/06/24 10:43:37;;;;;;;2.20;1.70;;;26.60;90.50;;;;;;5014396;28;20471;-76
2022/06/24 10:46:20;;;;;;;1.70;1.70;;;26.40;92.00;;;;;;4997182;28;20514;-77
2022/06/24 10:49:03;;;;;;;1.97;1.70;;;26.30;91.90;;;;;;5014191;28;20463;-76
2022/06/24 10:51:34;;;;;;;2.13;1.93;;;26.60;93.10;;;;;;5014176;28;20483;-78
2022/06/24 10:54:15;;;;;;;2.97;1.80;;;27.10;90.70;;;;;;5014084;28;20498;-77
2022/06/24 10:56:46;;;;;;;1.77;1.70;;;27.50;89.20;;;;;;5014234;28;20463;-76
2022/06/24 10:59:14;;;;;;;2.90;1.80;;;27.80;89.50;;;;;;5013991;28;21047;-77
2022/06/24 11:01:43;;;;;;;1.87;1.60;;;27.90;88.50;;;;;;4996759;28;20470;-76
2022/06/24 11:04:14;;;;;;;4.57;1.90;;;28.20;87.30;;;;;;4996851;28;20858;-77
2022/06/24 11:07:01;;;;;;;2.13;1.90;;;28.30;88.70;;;;;;5013891;28;20452;-77
2022/06/24 11:09:29;;;;;;;3.00;1.63;;;28.30;86.80;;;;;;5013659;28;20460;-77
2022/06/24 11:11:57;;;;;;;2.50;1.80;;;28.30;88.30;;;;;;5013817;28;20495;-77
2022/06/24 11:14:26;;;;;;;3.60;1.83;;;28.60;87.50;;;;;;5012312;28;20451;-77
2022/06/24 11:16:53;;;;;;;2.37;1.80;;;28.90;85.60;;;;;;5013819;28;20466;-77
2022/06/24 11:19:21;;;;;;;2.40;2.10;;;29.00;87.10;;;;;;5013607;28;20462;-77
2022/06/24 11:21:49;;;;;;;2.30;1.77;;;28.90;86.40;;;;;;5013748;28;20841;-77
2022/06/24 11:24:19;;;;;;;1.93;1.63;;;28.60;83.20;;;;;;5013536;28;20974;-77
2022/06/24 11:27:08;;;;;;;2.27;1.80;;;28.60;86.00;;;;;;5013618;28;20467;-77
2022/06/24 11:29:56;;;;;;;2.23;1.60;;;28.30;84.90;;;;;;5013434;28;20460;-77
2022/06/24 11:32:24;;;;;;;1.97;1.80;;;28.10;86.70;;;;;;5013207;28;20491;-76
2022/06/24 11:34:51;;;;;;;4.87;2.00;;;27.80;86.50;;;;;;4995965;28;20467;-76
2022/06/24 11:37:23;;;;;;;1.80;1.70;;;27.70;88.30;;;;;;5013323;28;20451;-76
2022/06/24 11:39:53;;;;;;;2.47;1.80;;;27.40;87.20;;;;;;4995990;28;20463;-77
2022/06/24 11:42:23;;;;;;;1.90;1.67;;;27.30;88.50;;;;;;5013339;28;20452;-76
2022/06/24 11:44:52;;;;;;;1.60;1.60;;;27.20;89.50;;;;;;5013378;28;21040;-77
2022/06/24 11:47:32;;;;;;;4.40;2.10;;;27.10;91.10;;;;;;5013298;28;20491;-76
2022/06/24 11:49:59;;;;;;;2.27;1.80;;;27.00;92.40;;;;;;5013163;28;20509;-76
2022/06/24 11:52:27;;;;;;;2.70;1.70;;;26.90;92.50;;;;;;5013595;28;20487;-77
2022/06/24 11:54:55;;;;;;;3.77;2.17;;;26.80;92.60;;;;;;5013162;28;20455;-76
2022/06/24 11:57:25;;;;;;;3.57;2.30;;;26.70;94.30;;;;;;5013155;28;20466;-75
2022/06/24 11:59:56;;;;;;;2.57;1.80;;;26.60;94.30;;;;;;5013122;28;20455;-75
2022/06/24 12:02:24;;;;;;;2.37;2.00;;;26.60;93.60;;;;;;5013142;28;20456;-75
2022/06/24 12:04:51;;;;;;;2.73;2.00;;;26.60;94.50;;;;;;5013109;28;20459;-74
2022/06/24 12:07:19;;;;;;;2.50;1.80;;;26.60;95.30;;;;;;4995574;28;20464;-74
2022/06/24 12:09:46;;;;;;;4.03;1.90;;;26.70;96.20;;;;;;5013343;28;20459;-74
2022/06/24 12:12:15;;;;;;;2.70;2.17;;;26.90;95.90;;;;;;5012894;28;20490;-75
2022/06/24 12:14:56;;;;;;;3.07;2.50;;;27.20;97.10;;;;;;5011524;28;20455;-75
2022/06/24 12:17:23;;;;;;;2.03;1.80;;;27.40;95.70;;;;;;4995529;28;20470;-76
2022/06/24 12:19:58;;;;;;;3.27;2.07;;;27.50;93.40;;;;;;5012574;28;20456;-75
2022/06/24 12:22:26;;;;;;;3.00;1.90;;;27.20;91.50;;;;;;5012987;28;20957;-75
2022/06/24 12:25:01;;;;;;;3.70;1.93;;;27.70;92.30;;;;;;5012552;28;20475;-75
2022/06/24 12:27:34;;;;;;;2.20;1.90;;;28.20;91.40;;;;;;5012687;28;20466;-75
2022/06/24 12:30:02;;;;;;;3.20;2.50;;;28.30;90.20;;;;;;5012513;28;20459;-75
2022/06/24 12:32:47;;;;;;;2.30;1.70;;;28.10;89.70;;;;;;5012508;28;20491;-74
2022/06/24 12:35:15;;;;;;;3.10;1.97;;;27.90;90.60;;;;;;5012641;28;20546;-76
2022/06/24 12:37:52;;;;;;;3.90;2.03;;;27.50;91.30;;;;;;5012337;28;20461;-65
2022/06/24 12:40:22;;;;;;;2.67;2.00;;;27.10;92.20;;;;;;5012179;28;20460;-72
2022/06/24 12:43:08;;;;;;;2.60;2.00;;;26.80;92.00;;;;;;5012296;28;20451;-72
2022/06/24 12:45:40;;;;;;;2.50;1.87;;;26.70;94.10;;;;;;5012103;28;20481;-72
2022/06/24 12:51:00;;;;;;;2.90;2.00;;;26.50;94.90;;;;;;5012818;28;20835;-71
2022/06/24 12:53:27;;;;;;;2.03;1.63;;;26.40;94.60;;;;;;5012034;28;20460;-72
2022/06/24 12:55:54;;;;;;;5.53;2.60;;;26.20;95.20;;;;;;5012363;28;20623;-71
2022/06/24 12:58:24;;;;;;;2.80;1.90;;;26.10;96.40;;;;;;5011813;28;20447;-71
2022/06/24 13:00:53;;;;;;;3.40;2.00;;;25.80;96.80;;;;;;4995041;28;20459;-71
2022/06/24 13:03:23;;;;;;;4.00;1.90;;;25.50;97.80;;;;;;5012005;28;20459;-72
2022/06/24 13:05:50;;;;;;;2.00;1.83;;;25.10;98.00;;;;;;5011857;28;20459;-72
2022/06/24 13:08:17;;;;;;;3.90;2.10;;;24.70;98.00;;;;;;5011681;28;20455;-71
2022/06/24 13:10:45;;;;;;;3.73;2.43;;;24.60;98.00;;;;;;4994411;28;20540;-72
2022/06/24 13:13:12;;;;;;;2.60;1.90;;;24.50;98.00;;;;;;5010973;28;21007;-71